Time;durP1;ratioP1;P1;durP2;ratioP2;P2;SDS_P1;SDS_P2;PMS_P1;PMS_P2;Temp;Humidity;BMP_temperature;BMP_pressure;BME280_temperature;BME280_humidity;BME280_pressure;Samples;Min_cycle;Max_cycle;Signal;HPM_P1;HPM_P2
2024/01/12 00:02:23;;;;;;;54.40;33.27;;;;;;;-4.03;100.00;99343.66;5115041;28;20429;-75
2024/01/12 00:04:49;;;;;;;54.03;33.97;;;;;;;-4.00;100.00;99340.88;5114608;28;20799;-75
2024/01/12 00:07:16;;;;;;;58.10;34.77;;;;;;;-4.00;100.00;99345.22;5114559;28;20842;-75
2024/01/12 00:09:49;;;;;;;59.50;36.37;;;;;;;-3.97;100.00;99337.25;5114853;28;20551;-75
2024/01/12 00:12:21;;;;;;;63.23;37.13;;;;;;;-3.97;100.00;99345.03;5114353;28;20929;-75
2024/01/12 00:14:52;;;;;;;61.30;38.13;;;;;;;-3.97;100.00;99345.84;5114420;28;20887;-75
2024/01/12 00:17:26;;;;;;;57.23;36.23;;;;;;;-3.97;100.00;99345.03;5114386;28;20833;-75
2024/01/12 00:19:53;;;;;;;58.13;36.43;;;;;;;-3.98;100.00;99349.38;5114072;28;20963;-75
2024/01/12 00:22:21;;;;;;;59.63;37.57;;;;;;;-3.98;100.00;99351.16;5114165;28;20441;-75
2024/01/12 00:24:49;;;;;;;56.03;36.33;;;;;;;-4.11;100.00;99343.28;5114373;28;20762;-75
2024/01/12 00:27:20;;;;;;;57.33;36.67;;;;;;;-4.04;100.00;99347.19;5114207;28;20477;-75
2024/01/12 00:29:48;;;;;;;53.40;36.07;;;;;;;-4.07;100.00;99344.75;5114119;28;20546;-75
2024/01/12 00:32:16;;;;;;;57.30;36.07;;;;;;;-4.14;100.00;99338.31;5114171;28;20471;-75
2024/01/12 00:34:44;;;;;;;55.53;35.53;;;;;;;-4.17;100.00;99341.09;5114118;28;20539;-75
2024/01/12 00:37:11;;;;;;;54.17;35.07;;;;;;;-4.23;100.00;99332.84;5114019;28;20809;-75
2024/01/12 00:39:38;;;;;;;58.70;35.57;;;;;;;-4.22;100.00;99339.69;5114039;28;20542;-75
2024/01/12 00:42:06;;;;;;;56.73;35.63;;;;;;;-4.21;100.00;99347.41;5114038;28;20437;-75
2024/01/12 00:44:32;;;;;;;52.73;33.97;;;;;;;-4.28;100.00;99350.47;5114012;28;20789;-75
2024/01/12 00:46:58;;;;;;;58.13;36.47;;;;;;;-4.26;100.00;99352.03;5114188;28;20475;-75
2024/01/12 00:49:25;;;;;;;55.30;35.00;;;;;;;-4.24;100.00;99354.56;5114151;28;20451;-75
2024/01/12 00:51:52;;;;;;;57.87;35.53;;;;;;;-4.35;100.00;99355.22;5113902;28;20439;-75
2024/01/12 00:54:22;;;;;;;53.23;34.47;;;;;;;-4.44;100.00;99353.19;5113888;28;20482;-75
2024/01/12 00:56:49;;;;;;;56.43;34.83;;;;;;;-4.43;100.00;99351.44;5113898;28;20780;-75
2024/01/12 00:59:16;;;;;;;54.27;34.43;;;;;;;-4.42;100.00;99346.16;5113924;28;20487;-75
2024/01/12 01:01:43;;;;;;;56.03;35.23;;;;;;;-4.49;100.00;99352.63;5114085;28;20438;-75
2024/01/12 01:04:09;;;;;;;57.53;35.93;;;;;;;-4.39;100.00;99348.53;5113798;28;20437;-75
2024/01/12 01:06:42;;;;;;;56.83;35.90;;;;;;;-4.41;100.00;99350.41;5114236;28;20471;-75
2024/01/12 01:09:13;;;;;;;56.47;35.33;;;;;;;-4.45;100.00;99356.72;5113601;28;20449;-75
2024/01/12 01:11:41;;;;;;;58.43;36.80;;;;;;;-4.48;100.00;99359.50;5113717;28;20462;-75
2024/01/12 01:14:09;;;;;;;60.57;35.37;;;;;;;-4.45;100.00;99363.66;5113534;28;20806;-75
2024/01/12 01:16:36;;;;;;;58.90;36.37;;;;;;;-4.43;100.00;99362.63;5113640;28;20467;-75
2024/01/12 01:19:07;;;;;;;60.43;36.50;;;;;;;-4.49;100.00;99363.03;5113491;28;20435;-75
2024/01/12 01:21:33;;;;;;;56.37;35.63;;;;;;;-4.56;100.00;99364.31;5113325;28;20532;-75
2024/01/12 01:24:04;;;;;;;51.00;34.20;;;;;;;-4.55;100.00;99363.41;5113587;28;20416;-75
2024/01/12 01:26:38;;;;;;;59.30;36.03;;;;;;;-4.48;100.00;99367.28;5113728;28;20456;-75
2024/01/12 01:29:08;;;;;;;53.37;33.90;;;;;;;-4.52;100.00;99370.97;5113511;28;20423;-75
2024/01/12 01:31:45;;;;;;;60.80;37.43;;;;;;;-4.65;100.00;99374.44;5113400;28;20435;-75
2024/01/12 01:34:17;;;;;;;54.43;35.73;;;;;;;-4.61;100.00;99368.94;5115848;28;20427;-75
2024/01/12 01:36:50;;;;;;;55.20;34.03;;;;;;;-4.58;100.00;99375.72;5117744;28;20878;-75
2024/01/12 01:39:25;;;;;;;57.03;36.60;;;;;;;-4.59;100.00;99374.91;5117439;27;20463;-75
2024/01/12 01:41:54;;;;;;;56.50;35.53;;;;;;;-4.56;100.00;99376.47;5117468;28;20431;-75
2024/01/12 01:44:25;;;;;;;55.47;35.97;;;;;;;-4.64;100.00;99374.34;5117609;28;20442;-75
2024/01/12 01:46:56;;;;;;;56.37;36.57;;;;;;;-4.57;100.00;99380.81;5117263;28;20980;-75
2024/01/12 01:49:28;;;;;;;58.53;36.23;;;;;;;-4.64;100.00;99374.34;5117476;28;20806;-75
2024/01/12 01:51:57;;;;;;;57.80;35.90;;;;;;;-4.62;100.00;99375.06;5117531;28;20415;-75
2024/01/12 01:54:30;;;;;;;55.93;34.90;;;;;;;-4.51;100.00;99370.09;5117165;28;20435;-75
2024/01/12 01:57:02;;;;;;;53.50;34.63;;;;;;;-4.60;100.00;99370.63;5118085;28;20808;-75
2024/01/12 01:59:36;;;;;;;59.07;34.70;;;;;;;-4.62;100.00;99369.06;5116901;28;20455;-75
2024/01/12 02:02:05;;;;;;;54.00;34.63;;;;;;;-4.61;100.00;99365.53;5116947;28;20415;-75
2024/01/12 02:04:32;;;;;;;56.23;34.50;;;;;;;-4.65;100.00;99367.47;5116938;28;20436;-75
2024/01/12 02:06:59;;;;;;;54.10;34.70;;;;;;;-4.68;100.00;99370.25;5117342;28;20846;-75
2024/01/12 02:09:25;;;;;;;52.40;32.60;;;;;;;-4.64;100.00;99368.31;5116873;28;20456;-75
2024/01/12 02:11:51;;;;;;;57.30;34.93;;;;;;;-4.70;100.00;99364.31;5117279;28;20522;-75
2024/01/12 02:14:18;;;;;;;54.00;34.90;;;;;;;-4.70;100.00;99366.91;5117160;28;20427;-75
2024/01/12 02:16:43;;;;;;;58.50;35.63;;;;;;;-4.58;100.00;99373.97;5117054;28;20430;-75
2024/01/12 02:19:10;;;;;;;55.23;35.43;;;;;;;-4.65;100.00;99364.88;5117093;28;20439;-75
2024/01/12 02:21:36;;;;;;;52.97;34.87;;;;;;;-4.67;100.00;99366.72;5116889;28;20558;-75
2024/01/12 02:24:02;;;;;;;55.80;35.93;;;;;;;-4.62;100.00;99371.66;5116958;28;20412;-75
2024/01/12 02:26:29;;;;;;;58.20;35.23;;;;;;;-4.66;100.00;99367.59;5116833;28;20474;-75
2024/01/12 02:28:56;;;;;;;55.83;34.87;;;;;;;-4.66;100.00;99364.97;5116810;28;20998;-75
2024/01/12 02:31:23;;;;;;;59.93;36.63;;;;;;;-4.67;100.00;99364.13;5116880;28;20440;-75
2024/01/12 02:33:50;;;;;;;56.10;34.63;;;;;;;-4.74;100.00;99357.63;5116488;28;20440;-75
2024/01/12 02:36:16;;;;;;;59.80;35.00;;;;;;;-4.85;100.00;99354.03;5116774;28;20434;-75
2024/01/12 02:38:46;;;;;;;60.27;35.83;;;;;;;-4.75;100.00;99353.38;5116757;28;20432;-75
2024/01/12 02:41:13;;;;;;;54.73;35.43;;;;;;;-4.75;100.00;99348.19;5116877;27;20447;-75
2024/01/12 02:43:39;;;;;;;60.20;37.10;;;;;;;-4.74;100.00;99344.66;5116628;28;20431;-75
2024/01/12 02:46:05;;;;;;;60.57;36.20;;;;;;;-4.69;100.00;99345.25;5116620;28;20474;-75
2024/01/12 02:48:32;;;;;;;56.13;35.77;;;;;;;-4.83;100.00;99340.06;5116422;28;20431;-75
2024/01/12 02:50:58;;;;;;;53.50;34.13;;;;;;;-4.88;100.00;99339.47;5116399;28;20452;-75
2024/01/12 02:53:24;;;;;;;53.43;34.60;;;;;;;-4.84;100.00;99340.16;5116200;28;20467;-75
2024/01/12 02:55:51;;;;;;;58.30;34.33;;;;;;;-4.97;100.00;99332.25;5116423;28;20439;-75
2024/01/12 02:58:17;;;;;;;59.57;37.70;;;;;;;-4.87;100.00;99330.81;5116319;28;20435;-75
2024/01/12 03:00:44;;;;;;;57.67;36.20;;;;;;;-4.81;100.00;99326.97;5116279;28;20454;-75
2024/01/12 03:03:11;;;;;;;58.33;36.80;;;;;;;-4.94;100.00;99337.28;5116237;28;20427;-75
2024/01/12 03:05:37;;;;;;;56.23;36.30;;;;;;;-4.96;100.00;99336.53;5115930;28;21000;-75
2024/01/12 03:08:04;;;;;;;58.03;37.33;;;;;;;-4.98;100.00;99329.78;5116010;28;20483;-75
2024/01/12 03:10:30;;;;;;;56.90;36.00;;;;;;;-4.95;100.00;99333.00;5115735;28;20816;-75
2024/01/12 03:12:56;;;;;;;54.10;35.43;;;;;;;-4.91;100.00;99331.91;5115439;28;20801;-75
2024/01/12 03:15:23;;;;;;;54.10;35.13;;;;;;;-4.85;100.00;99330.69;5115634;28;20797;-75
2024/01/12 03:17:49;;;;;;;53.57;34.87;;;;;;;-4.77;100.00;99337.09;5115641;28;20808;-75
2024/01/12 03:20:16;;;;;;;53.73;35.03;;;;;;;-4.82;100.00;99328.75;5115810;28;20454;-75
2024/01/12 03:22:42;;;;;;;53.17;33.60;;;;;;;-4.92;100.00;99332.84;5115556;28;20450;-75
2024/01/12 03:25:08;;;;;;;54.30;33.07;;;;;;;-4.89;100.00;99331.81;5115779;28;20432;-75
2024/01/12 03:27:35;;;;;;;59.03;34.37;;;;;;;-4.97;100.00;99340.03;5115835;28;20482;-75
2024/01/12 03:30:01;;;;;;;55.97;35.17;;;;;;;-4.94;100.00;99328.63;5115543;28;20447;-75
2024/01/12 03:32:28;;;;;;;54.83;35.17;;;;;;;-4.93;100.00;99336.34;5115336;28;20435;-75
2024/01/12 03:34:54;;;;;;;54.53;34.63;;;;;;;-4.97;100.00;99334.03;5115219;28;20436;-75
2024/01/12 03:37:21;;;;;;;51.70;34.97;;;;;;;-5.01;100.00;99338.56;5115237;28;20435;-75
2024/01/12 03:39:47;;;;;;;52.40;33.40;;;;;;;-5.03;100.00;99335.22;5115174;28;20459;-75
2024/01/12 03:42:13;;;;;;;54.37;35.17;;;;;;;-5.05;100.00;99337.09;5115172;28;20934;-75
2024/01/12 03:44:40;;;;;;;57.90;34.63;;;;;;;-5.05;100.00;99336.25;5115134;28;20792;-75
2024/01/12 03:47:06;;;;;;;55.13;34.43;;;;;;;-5.03;100.00;99345.59;5115215;28;20475;-75
2024/01/12 03:49:33;;;;;;;57.80;34.87;;;;;;;-5.05;100.00;99350.06;5115382;28;20458;-75
2024/01/12 03:52:00;;;;;;;59.00;36.67;;;;;;;-5.14;100.00;99348.00;5115252;28;20471;-75
2024/01/12 03:54:26;;;;;;;56.17;35.73;;;;;;;-5.15;100.00;99341.13;5115434;28;20438;-75
2024/01/12 03:56:53;;;;;;;58.20;34.77;;;;;;;-5.22;100.00;99350.19;5114603;28;20526;-75
2024/01/12 03:59:20;;;;;;;53.37;32.63;;;;;;;-5.19;100.00;99342.25;5115067;28;20536;-75
2024/01/12 04:01:47;;;;;;;54.40;34.30;;;;;;;-5.12;100.00;99350.50;5115132;28;20461;-75
2024/01/12 04:04:14;;;;;;;50.87;32.53;;;;;;;-5.17;100.00;99348.19;5114740;28;20435;-75
2024/01/12 04:06:41;;;;;;;54.70;32.83;;;;;;;-5.16;100.00;99351.63;5114753;28;20503;-75
2024/01/12 04:09:09;;;;;;;50.20;31.70;;;;;;;-5.26;100.00;99348.72;5114694;28;20431;-75
2024/01/12 04:11:36;;;;;;;50.10;33.47;;;;;;;-5.20;100.00;99348.34;5114650;28;20527;-75
2024/01/12 04:14:03;;;;;;;57.10;34.80;;;;;;;-5.16;100.00;99347.25;5114567;28;20458;-75
2024/01/12 04:16:29;;;;;;;51.47;33.77;;;;;;;-5.18;100.00;99341.31;5114352;28;20439;-75
2024/01/12 04:18:56;;;;;;;50.70;32.87;;;;;;;-5.10;100.00;99338.28;5114533;28;20432;-75
2024/01/12 04:21:22;;;;;;;54.80;34.03;;;;;;;-5.07;100.00;99341.50;5114416;28;20435;-75
2024/01/12 04:23:49;;;;;;;59.13;35.83;;;;;;;-5.03;100.00;99342.16;5114770;28;20824;-75
2024/01/12 04:26:15;;;;;;;56.07;34.20;;;;;;;-4.96;100.00;99343.47;5114121;28;20431;-75
2024/01/12 04:28:42;;;;;;;54.00;34.37;;;;;;;-5.12;100.00;99346.13;5114495;28;20803;-75
2024/01/12 04:31:08;;;;;;;60.40;35.57;;;;;;;-5.14;100.00;99355.78;5114311;28;20451;-75
2024/01/12 04:33:35;;;;;;;59.20;35.67;;;;;;;-5.15;100.00;99348.09;5114338;28;20427;-75
2024/01/12 04:36:02;;;;;;;55.97;35.03;;;;;;;-5.17;100.00;99343.00;5114354;28;20435;-75
2024/01/12 04:38:28;;;;;;;60.33;37.27;;;;;;;-5.20;100.00;99350.13;5113297;28;20424;-75
2024/01/12 04:40:55;;;;;;;56.80;34.30;;;;;;;-5.17;100.00;99348.19;5113540;28;20989;-75
2024/01/12 04:43:21;;;;;;;60.37;35.27;;;;;;;-5.14;100.00;99350.59;5113438;28;20452;-75
2024/01/12 04:45:48;;;;;;;53.87;34.77;;;;;;;-5.18;100.00;99354.28;5114025;28;20438;-75
2024/01/12 04:48:14;;;;;;;56.37;34.80;;;;;;;-5.23;100.00;99358.06;5114115;28;20483;-75
2024/01/12 04:50:41;;;;;;;57.27;35.43;;;;;;;-5.18;100.00;99367.25;5113520;28;20988;-75
2024/01/12 04:53:07;;;;;;;55.10;34.10;;;;;;;-5.27;100.00;99361.75;5113889;28;20434;-75
2024/01/12 04:55:33;;;;;;;59.30;34.57;;;;;;;-5.29;100.00;99373.97;5113944;28;20431;-75
2024/01/12 04:58:00;;;;;;;58.37;35.47;;;;;;;-5.31;100.00;99370.63;5113966;28;20432;-75
2024/01/12 05:00:26;;;;;;;57.13;34.30;;;;;;;-5.34;100.00;99369.06;5113762;28;20458;-75
2024/01/12 05:02:53;;;;;;;59.30;35.07;;;;;;;-5.34;100.00;99378.59;5113834;28;20852;-75
2024/01/12 05:05:19;;;;;;;53.37;34.50;;;;;;;-5.43;100.00;99374.75;5113397;28;20945;-75
2024/01/12 05:07:46;;;;;;;53.17;33.80;;;;;;;-5.45;100.00;99389.56;5112535;28;20936;-75
2024/01/12 05:10:13;;;;;;;58.07;34.90;;;;;;;-5.38;100.00;99384.88;5113213;28;20966;-75
2024/01/12 05:12:39;;;;;;;52.17;34.20;;;;;;;-5.46;100.00;99387.91;5113555;28;20446;-75
2024/01/12 05:15:06;;;;;;;52.87;34.33;;;;;;;-5.46;100.00;99393.09;5113625;28;20818;-75
2024/01/12 05:17:32;;;;;;;56.90;34.47;;;;;;;-5.46;100.00;99389.66;5113603;28;20431;-75
2024/01/12 05:20:06;;;;;;;58.00;34.97;;;;;;;-5.42;100.00;99381.59;5113266;28;20818;-75
2024/01/12 05:22:33;;;;;;;54.27;34.13;;;;;;;-5.41;100.00;99393.66;5113327;28;20462;-75
2024/01/12 05:24:59;;;;;;;52.67;33.13;;;;;;;-5.41;100.00;99396.25;5113342;28;20431;-75
2024/01/12 05:27:26;;;;;;;56.80;33.30;;;;;;;-5.46;100.00;99400.03;5113286;28;20987;-75
2024/01/12 05:29:52;;;;;;;55.17;33.87;;;;;;;-5.59;100.00;99391.28;5113668;28;20494;-75
2024/01/12 05:32:19;;;;;;;56.17;35.10;;;;;;;-5.66;100.00;99393.38;5113701;28;20437;-75
2024/01/12 05:34:45;;;;;;;53.80;33.50;;;;;;;-5.63;100.00;99382.84;5113482;28;20432;-75
2024/01/12 05:37:12;;;;;;;59.23;33.87;;;;;;;-5.58;100.00;99387.75;5113376;28;20427;-76
2024/01/12 05:39:39;;;;;;;55.90;34.37;;;;;;;-5.56;100.00;99385.94;5113109;28;20463;-76
2024/01/12 05:42:06;;;;;;;51.50;34.60;;;;;;;-5.45;100.00;99381.81;5112933;28;20444;-76
2024/01/12 05:44:32;;;;;;;58.30;33.87;;;;;;;-5.53;100.00;99380.56;5112888;28;20496;-75
2024/01/12 05:46:59;;;;;;;53.20;34.50;;;;;;;-5.49;100.00;99375.13;5112661;28;20510;-75
2024/01/12 05:49:25;;;;;;;56.27;34.87;;;;;;;-5.52;100.00;99374.47;5113063;28;20451;-75
2024/01/12 05:51:52;;;;;;;53.43;33.90;;;;;;;-5.55;100.00;99383.25;5113148;28;20445;-75
2024/01/12 05:54:18;;;;;;;54.90;35.03;;;;;;;-5.53;100.00;99378.81;5112833;28;20432;-76
2024/01/12 05:56:44;;;;;;;59.83;34.93;;;;;;;-5.49;100.00;99384.63;5112753;28;20927;-75
2024/01/12 05:59:11;;;;;;;52.20;33.57;;;;;;;-5.51;100.00;99387.34;5112928;28;20795;-75
2024/01/12 06:01:37;;;;;;;55.03;35.50;;;;;;;-5.47;100.00;99386.22;5112952;28;20424;-75
2024/01/12 06:04:04;;;;;;;49.17;33.57;;;;;;;-5.49;100.00;99382.91;5112912;28;20436;-75
2024/01/12 06:06:30;;;;;;;58.17;35.40;;;;;;;-5.46;100.00;99374.13;5112915;28;20432;-75
2024/01/12 06:08:57;;;;;;;56.53;34.20;;;;;;;-5.40;100.00;99377.19;5112652;28;20478;-75
2024/01/12 06:11:23;;;;;;;53.10;32.70;;;;;;;-5.41;100.00;99380.72;5112901;28;20435;-75
2024/01/12 06:13:49;;;;;;;53.80;33.60;;;;;;;-5.42;100.00;99368.66;5112689;28;20471;-75
2024/01/12 06:16:16;;;;;;;55.20;33.83;;;;;;;-5.47;100.00;99368.09;5113113;28;20428;-75
2024/01/12 06:18:42;;;;;;;57.63;34.80;;;;;;;-5.48;100.00;99368.19;5112330;28;20436;-75
2024/01/12 06:21:09;;;;;;;54.03;33.70;;;;;;;-5.49;100.00;99369.94;5116225;28;20859;-75
2024/01/12 06:23:35;;;;;;;58.23;34.13;;;;;;;-5.54;100.00;99381.47;5116496;28;20522;-75
2024/01/12 06:26:02;;;;;;;55.83;34.63;;;;;;;-5.45;100.00;99380.94;5116558;28;20431;-75
2024/01/12 06:28:28;;;;;;;56.57;34.33;;;;;;;-5.45;100.00;99381.81;5116242;28;20482;-75
2024/01/12 06:30:55;;;;;;;54.17;33.50;;;;;;;-5.46;100.00;99377.53;5116502;28;20458;-75
2024/01/12 06:33:21;;;;;;;56.00;34.67;;;;;;;-5.45;100.00;99376.63;5116188;28;20439;-75
2024/01/12 06:35:48;;;;;;;53.27;33.17;;;;;;;-5.56;100.00;99373.78;5115964;28;20800;-76
2024/01/12 06:38:14;;;;;;;53.20;34.67;;;;;;;-5.47;100.00;99365.50;5115928;28;20496;-76
2024/01/12 06:40:41;;;;;;;55.50;35.13;;;;;;;-5.56;100.00;99371.19;5115953;28;21034;-75
2024/01/12 06:43:07;;;;;;;54.83;34.10;;;;;;;-5.65;100.00;99365.72;5115830;28;20431;-75
2024/01/12 06:45:33;;;;;;;53.53;33.67;;;;;;;-5.58;100.00;99361.84;5115623;28;20519;-75
2024/01/12 06:48:00;;;;;;;56.63;33.37;;;;;;;-5.57;100.00;99359.16;5115391;28;20978;-75
2024/01/12 06:50:28;;;;;;;56.60;34.50;;;;;;;-5.56;100.00;99370.38;5115690;28;20508;-76
2024/01/12 06:52:55;;;;;;;56.47;34.30;;;;;;;-5.61;100.00;99368.03;5115780;28;20958;-75
2024/01/12 06:55:22;;;;;;;51.80;32.40;;;;;;;-5.60;100.00;99374.91;5115118;28;20778;-75
2024/01/12 06:57:48;;;;;;;56.33;34.30;;;;;;;-5.68;100.00;99355.53;5115929;28;20431;-76
2024/01/12 07:00:15;;;;;;;53.93;32.53;;;;;;;-5.68;100.00;99361.56;5115727;28;20459;-75
2024/01/12 07:02:42;;;;;;;54.00;34.27;;;;;;;-5.70;100.00;99363.38;5115776;28;20431;-75
2024/01/12 07:05:08;;;;;;;53.80;32.73;;;;;;;-5.60;100.00;99367.13;5115395;28;20432;-75
2024/01/12 07:07:35;;;;;;;52.07;32.57;;;;;;;-5.65;100.00;99371.72;5115053;28;20875;-75
2024/01/12 07:10:01;;;;;;;52.87;32.43;;;;;;;-5.72;100.00;99378.19;5115222;28;20462;-75
2024/01/12 07:12:28;;;;;;;51.87;34.50;;;;;;;-5.74;100.00;99368.84;5115551;28;20431;-75
2024/01/12 07:14:55;;;;;;;58.63;34.03;;;;;;;-5.82;100.00;99373.63;5115116;28;20620;-75
2024/01/12 07:17:21;;;;;;;53.97;33.90;;;;;;;-5.76;100.00;99371.50;5115471;28;20424;-75
2024/01/12 07:19:47;;;;;;;52.03;33.13;;;;;;;-5.69;100.00;99377.19;5114445;28;20969;-75
2024/01/12 07:22:14;;;;;;;58.50;34.60;;;;;;;-5.68;100.00;99371.91;5114978;28;20972;-75
2024/01/12 07:24:40;;;;;;;56.87;33.70;;;;;;;-5.62;100.00;99368.97;5114798;28;20949;-75
2024/01/12 07:27:07;;;;;;;58.97;34.53;;;;;;;-5.55;100.00;99372.03;5115137;28;20902;-75
2024/01/12 07:29:34;;;;;;;56.13;33.83;;;;;;;-5.51;100.00;99370.94;5114926;28;20458;-75
2024/01/12 07:32:00;;;;;;;58.60;33.73;;;;;;;-5.45;100.00;99375.78;5114070;28;20432;-75
2024/01/12 07:34:27;;;;;;;54.63;34.70;;;;;;;-5.51;100.00;99378.72;5114779;28;20772;-76
2024/01/12 07:36:53;;;;;;;58.23;34.17;;;;;;;-5.51;100.00;99391.69;5115077;28;20460;-76
2024/01/12 07:39:19;;;;;;;56.43;34.00;;;;;;;-5.50;100.00;99386.41;5115165;28;20439;-76
2024/01/12 07:41:46;;;;;;;54.40;32.73;;;;;;;-5.45;100.00;99389.56;5115242;28;20431;-76
2024/01/12 07:44:13;;;;;;;49.30;33.37;;;;;;;-5.38;100.00;99380.50;5115151;28;20951;-75
2024/01/12 07:46:39;;;;;;;51.90;33.20;;;;;;;-5.42;100.00;99391.16;5115255;28;20439;-76
2024/01/12 07:49:09;;;;;;;60.53;35.00;;;;;;;-5.29;100.00;99395.53;5114948;28;20985;-76
2024/01/12 07:51:38;;;;;;;55.17;33.33;;;;;;;-5.25;100.00;99391.03;5115303;28;20910;-76
2024/01/12 07:54:05;;;;;;;55.00;33.17;;;;;;;-5.19;100.00;99407.06;5115385;28;20439;-76
2024/01/12 07:56:31;;;;;;;54.87;33.73;;;;;;;-5.15;100.00;99405.94;5114775;28;20428;-76
2024/01/12 07:58:57;;;;;;;54.07;32.47;;;;;;;-5.14;100.00;99404.19;5114682;28;20435;-76
2024/01/12 08:01:24;;;;;;;54.23;33.63;;;;;;;-5.16;100.00;99412.06;5114497;28;20474;-76
2024/01/12 08:03:50;;;;;;;60.67;35.33;;;;;;;-5.10;100.00;99406.53;5114276;28;20522;-76
2024/01/12 08:06:17;;;;;;;54.93;33.37;;;;;;;-5.09;100.00;99408.19;5114622;28;20445;-75
2024/01/12 08:08:44;;;;;;;57.63;34.00;;;;;;;-5.03;100.00;99415.59;5114223;28;20981;-76
2024/01/12 08:11:10;;;;;;;55.50;33.07;;;;;;;-5.00;100.00;99412.00;5114586;28;20457;-76
2024/01/12 08:13:36;;;;;;;53.00;34.53;;;;;;;-5.09;100.00;99413.38;5114419;28;20662;-76
2024/01/12 08:16:03;;;;;;;57.23;34.63;;;;;;;-4.96;100.00;99408.31;5114557;28;20469;-76
2024/01/12 08:18:29;;;;;;;52.93;33.73;;;;;;;-4.92;100.00;99405.44;5114748;28;20528;-76
2024/01/12 08:20:56;;;;;;;55.70;35.10;;;;;;;-4.97;100.00;99410.03;5114186;28;20463;-76
2024/01/12 08:23:23;;;;;;;54.30;34.53;;;;;;;-4.93;100.00;99415.91;5114192;27;20451;-75
2024/01/12 08:25:50;;;;;;;55.97;34.80;;;;;;;-4.92;100.00;99421.00;5114372;28;20435;-75
2024/01/12 08:28:16;;;;;;;54.47;35.07;;;;;;;-4.85;100.00;99434.44;5114372;28;20472;-76
2024/01/12 08:30:42;;;;;;;53.37;35.23;;;;;;;-4.83;100.00;99441.22;5114037;28;20463;-75
2024/01/12 08:33:09;;;;;;;58.87;35.87;;;;;;;-4.83;100.00;99438.63;5114145;28;20543;-76
2024/01/12 08:35:35;;;;;;;56.27;35.37;;;;;;;-4.69;100.00;99448.19;5114017;28;20438;-76
2024/01/12 08:38:02;;;;;;;55.20;34.80;;;;;;;-4.71;100.00;99458.63;5114898;28;20522;-76
2024/01/12 08:40:28;;;;;;;55.73;34.50;;;;;;;-4.75;100.00;99451.97;5114001;28;20447;-76
2024/01/12 08:42:57;;;;;;;53.57;33.87;;;;;;;-4.63;100.00;99453.84;5113306;28;20439;-76
2024/01/12 08:45:23;;;;;;;54.90;34.50;;;;;;;-4.69;100.00;99456.81;5113602;28;20938;-75
2024/01/12 08:47:49;;;;;;;55.60;35.93;;;;;;;-4.65;100.00;99460.88;5113566;28;20483;-76
2024/01/12 08:50:16;;;;;;;56.03;34.93;;;;;;;-4.51;100.00;99452.28;5113507;28;20452;-76
2024/01/12 08:52:42;;;;;;;55.20;34.50;;;;;;;-4.51;100.00;99454.88;5113809;28;20432;-76
2024/01/12 08:55:09;;;;;;;50.17;32.37;;;;;;;-4.48;100.00;99468.50;5113793;28;20499;-76
2024/01/12 08:57:36;;;;;;;53.97;34.43;;;;;;;-4.33;100.00;99467.59;5113728;28;20526;-76
2024/01/12 09:00:05;;;;;;;51.30;34.23;;;;;;;-4.35;100.00;99466.84;5113482;28;20457;-76
2024/01/12 09:02:31;;;;;;;51.17;33.20;;;;;;;-4.26;100.00;99463.69;5115029;28;20439;-76
2024/01/12 09:04:58;;;;;;;48.63;32.17;;;;;;;-4.33;100.00;99462.41;5113920;28;20519;-75
2024/01/12 09:07:24;;;;;;;55.47;35.60;;;;;;;-4.23;100.00;99463.50;5113487;28;20431;-75
2024/01/12 09:09:51;;;;;;;50.47;32.83;;;;;;;-4.16;100.00;99469.16;5113382;28;20820;-75
2024/01/12 09:12:18;;;;;;;47.50;32.00;;;;;;;-4.20;100.00;99465.91;5113692;28;20439;-75
2024/01/12 09:14:44;;;;;;;47.90;33.40;;;;;;;-4.13;100.00;99469.81;5113417;28;21026;-76
2024/01/12 09:17:10;;;;;;;55.03;33.60;;;;;;;-4.07;100.00;99468.59;5113585;28;20431;-74
2024/01/12 09:19:37;;;;;;;52.57;32.87;;;;;;;-3.99;100.00;99474.13;5113507;28;20447;-75
2024/01/12 09:22:03;;;;;;;52.27;32.57;;;;;;;-3.80;100.00;99475.50;5113554;28;20454;-75
2024/01/12 09:24:29;;;;;;;56.40;34.17;;;;;;;-3.62;100.00;99479.56;5113708;28;20431;-75
2024/01/12 09:26:56;;;;;;;51.57;32.37;;;;;;;-3.30;100.00;99477.53;5113508;28;20450;-75
2024/01/12 09:29:22;;;;;;;46.70;31.57;;;;;;;-3.39;100.00;99473.72;5113188;28;20483;-75
2024/01/12 09:31:48;;;;;;;50.20;33.80;;;;;;;-3.48;100.00;99476.09;5113399;28;20788;-75
2024/01/12 09:34:15;;;;;;;53.03;34.07;;;;;;;-3.47;100.00;99476.00;5113409;28;20450;-75
2024/01/12 09:36:43;;;;;;;51.47;31.43;;;;;;;-3.51;100.00;99487.53;5112995;28;20442;-75
2024/01/12 09:39:14;;;;;;;43.87;31.97;;;;;;;-3.37;100.00;99478.84;5112980;28;20438;-75
2024/01/12 09:41:49;;;;;;;52.70;31.43;;;;;;;-3.22;100.00;99491.69;5113293;28;20420;-76
2024/01/12 09:44:20;;;;;;;54.97;32.40;;;;;;;-3.22;100.00;99481.28;5113146;28;20431;-75
2024/01/12 09:46:57;;;;;;;50.60;32.73;;;;;;;-3.12;100.00;99484.16;5112966;28;20484;-75
2024/01/12 09:49:25;;;;;;;51.33;32.47;;;;;;;-2.93;100.00;99482.81;5113236;28;20486;-75
2024/01/12 09:51:51;;;;;;;51.77;32.90;;;;;;;-2.91;100.00;99486.19;5113235;28;20431;-75
2024/01/12 09:54:18;;;;;;;46.80;31.37;;;;;;;-2.92;100.00;99484.53;5113831;28;20427;-75
2024/01/12 09:56:44;;;;;;;50.80;32.70;;;;;;;-2.91;100.00;99483.56;5116717;28;20442;-75
2024/01/12 09:59:11;;;;;;;52.27;34.00;;;;;;;-3.14;100.00;99478.19;5116584;28;20423;-74
2024/01/12 10:01:41;;;;;;;54.30;35.20;;;;;;;-3.22;100.00;99475.25;5117215;28;20427;-75
2024/01/12 10:04:08;;;;;;;48.23;33.07;;;;;;;-3.37;100.00;99487.47;5116596;28;20428;-75
2024/01/12 10:06:35;;;;;;;51.23;33.10;;;;;;;-3.16;100.00;99477.47;5117156;28;20435;-76
2024/01/12 10:09:01;;;;;;;50.80;32.93;;;;;;;-3.15;100.00;99466.97;5116767;28;21011;-75
2024/01/12 10:11:28;;;;;;;52.23;33.87;;;;;;;-2.89;100.00;99468.69;5117063;28;20437;-75
2024/01/12 10:13:54;;;;;;;50.87;32.07;;;;;;;-3.02;100.00;99473.03;5117036;28;20427;-76
2024/01/12 10:16:22;;;;;;;48.40;31.17;;;;;;;-3.06;100.00;99463.78;5116728;28;20514;-76
2024/01/12 10:18:49;;;;;;;43.57;29.47;;;;;;;-2.98;100.00;99453.69;5117260;28;20442;-75
2024/01/12 10:21:16;;;;;;;50.87;31.80;;;;;;;-2.94;100.00;99449.13;5116605;28;20899;-76
2024/01/12 10:23:42;;;;;;;46.73;31.70;;;;;;;-2.91;100.00;99451.50;5116580;28;20882;-75
2024/01/12 10:26:09;;;;;;;45.53;29.37;;;;;;;-2.89;100.00;99462.66;5116372;28;20508;-75
2024/01/12 10:28:36;;;;;;;46.10;30.63;;;;;;;-3.00;100.00;99459.91;5116696;28;20475;-75
2024/01/12 10:31:06;;;;;;;48.93;32.23;;;;;;;-3.01;100.00;99468.66;5116255;28;20453;-75
2024/01/12 10:33:33;;;;;;;48.40;31.20;;;;;;;-3.17;100.00;99461.03;5116343;28;20435;-75
2024/01/12 10:36:21;;;;;;;47.70;32.13;;;;;;;-3.04;100.00;99461.91;5116694;28;20439;-76
2024/01/12 10:38:50;;;;;;;50.87;32.43;;;;;;;-2.91;100.00;99457.56;5116120;28;20416;-76
2024/01/12 10:41:22;;;;;;;49.70;31.93;;;;;;;-2.97;100.00;99444.97;5116738;28;20442;-76
2024/01/12 10:43:53;;;;;;;50.03;31.33;;;;;;;-2.79;100.00;99438.53;5116369;28;20419;-76
2024/01/12 10:46:39;;;;;;;43.17;28.20;;;;;;;-2.63;100.00;99456.53;5116255;28;20420;-76
2024/01/12 10:49:13;;;;;;;50.80;31.10;;;;;;;-2.63;100.00;99456.53;5115668;28;20558;-76
2024/01/12 10:52:01;;;;;;;43.17;30.40;;;;;;;-2.57;100.00;99443.13;5116049;28;20444;-76
2024/01/12 10:55:10;;;;;;;48.43;30.57;;;;;;;-2.64;100.00;99439.25;5114364;28;20458;-76
2024/01/12 10:57:37;;;;;;;43.33;28.83;;;;;;;-2.47;100.00;99437.19;5114271;28;21014;-75
2024/01/12 11:00:05;;;;;;;44.47;28.00;;;;;;;-2.31;100.00;99440.41;5115792;28;20862;-75
2024/01/12 11:02:32;;;;;;;37.57;27.33;;;;;;;-2.45;100.00;99440.53;5115446;28;21012;-74
2024/01/12 11:05:01;;;;;;;42.63;28.33;;;;;;;-2.54;100.00;99438.53;5115891;28;20427;-75
2024/01/12 11:07:28;;;;;;;43.50;28.70;;;;;;;-2.62;100.00;99435.63;5115693;28;20516;-75
2024/01/12 11:09:56;;;;;;;40.80;28.43;;;;;;;-2.39;100.00;99426.25;5115517;28;20487;-75
2024/01/12 11:12:32;;;;;;;42.73;28.93;;;;;;;-2.35;100.00;99432.94;5115741;28;20433;-75